sensor_id;sensor_type;location;lat;lon;timestamp;pressure;altitude;pressure_sealevel;temperature;humidity
30919;BME280;76545;51.606;5.884;2024-02-14T00:00:03;101325.91;;;7.16;100.00
30919;BME280;76545;51.606;5.884;2024-02-14T00:02:30;101332.16;;;7.18;100.00
30919;BME280;76545;51.606;5.884;2024-02-14T00:04:56;101333.06;;;7.19;100.00
30919;BME280;76545;51.606;5.884;2024-02-14T00:07:22;101337.38;;;7.18;100.00
30919;BME280;76545;51.606;5.884;2024-02-14T00:09:48;101323.38;;;7.18;100.00
30919;BME280;76545;51.606;5.884;2024-02-14T00:12:14;101317.59;;;7.22;100.00
30919;BME280;76545;51.606;5.884;2024-02-14T00:14:40;101307.78;;;7.19;100.00
30919;BME280;76545;51.606;5.884;2024-02-14T00:17:07;101315.88;;;7.22;100.00
30919;BME280;76545;51.606;5.884;2024-02-14T00:19:33;101315.63;;;7.19;100.00
30919;BME280;76545;51.606;5.884;2024-02-14T00:21:59;101305.16;;;7.19;100.00
30919;BME280;76545;51.606;5.884;2024-02-14T00:24:26;101308.69;;;7.20;100.00
30919;BME280;76545;51.606;5.884;2024-02-14T00:26:54;101302.69;;;7.21;100.00
30919;BME280;76545;51.606;5.884;2024-02-14T00:29:20;101304.38;;;7.20;100.00
30919;BME280;76545;51.606;5.884;2024-02-14T00:31:46;101301.19;;;7.24;100.00
30919;BME280;76545;51.606;5.884;2024-02-14T00:34:12;101299.50;;;7.25;100.00
30919;BME280;76545;51.606;5.884;2024-02-14T00:36:38;101289.91;;;7.25;100.00
30919;BME280;76545;51.606;5.884;2024-02-14T00:39:04;101284.69;;;7.25;100.00
30919;BME280;76545;51.606;5.884;2024-02-14T00:41:30;101289.03;;;7.25;100.00
30919;BME280;76545;51.606;5.884;2024-02-14T00:43:56;101281.94;;;7.24;100.00
30919;BME280;76545;51.606;5.884;2024-02-14T00:46:23;101288.31;;;7.27;100.00
30919;BME280;76545;51.606;5.884;2024-02-14T00:48:49;101287.66;;;7.30;100.00
30919;BME280;76545;51.606;5.884;2024-02-14T00:51:15;101279.69;;;7.28;100.00
30919;BME280;76545;51.606;5.884;2024-02-14T00:53:41;101286.72;;;7.30;100.00
30919;BME280;76545;51.606;5.884;2024-02-14T00:56:08;101281.59;;;7.31;100.00
30919;BME280;76545;51.606;5.884;2024-02-14T00:58:34;101277.16;;;7.30;100.00
30919;BME280;76545;51.606;5.884;2024-02-14T01:01:00;101276.34;;;7.31;100.00
30919;BME280;76545;51.606;5.884;2024-02-14T01:03:26;101271.25;;;7.33;100.00
30919;BME280;76545;51.606;5.884;2024-02-14T01:05:52;101273.88;;;7.33;100.00
30919;BME280;76545;51.606;5.884;2024-02-14T01:08:18;101273.06;;;7.34;100.00
30919;BME280;76545;51.606;5.884;2024-02-14T01:10:44;101269.88;;;7.38;100.00
30919;BME280;76545;51.606;5.884;2024-02-14T01:13:12;101278.50;;;7.37;100.00
30919;BME280;76545;51.606;5.884;2024-02-14T01:15:38;101289.22;;;7.40;100.00
30919;BME280;76545;51.606;5.884;2024-02-14T01:18:04;101282.16;;;7.39;100.00
30919;BME280;76545;51.606;5.884;2024-02-14T01:20:30;101287.53;;;7.40;100.00
30919;BME280;76545;51.606;5.884;2024-02-14T01:22:56;101281.47;;;7.42;100.00
30919;BME280;76545;51.606;5.884;2024-02-14T01:25:22;101279.88;;;7.44;100.00
30919;BME280;76545;51.606;5.884;2024-02-14T01:27:48;101296.50;;;7.44;100.00
30919;BME280;76545;51.606;5.884;2024-02-14T01:30:14;101288.66;;;7.44;100.00
30919;BME280;76545;51.606;5.884;2024-02-14T01:32:40;101294.00;;;7.46;100.00
30919;BME280;76545;51.606;5.884;2024-02-14T01:35:07;101286.16;;;7.46;100.00
30919;BME280;76545;51.606;5.884;2024-02-14T01:37:33;101276.13;;;7.40;100.00
30919;BME280;76545;51.606;5.884;2024-02-14T01:39:59;101286.25;;;7.47;100.00
30919;BME280;76545;51.606;5.884;2024-02-14T01:42:25;101289.88;;;7.49;100.00
30919;BME280;76545;51.606;5.884;2024-02-14T01:44:53;101295.22;;;7.51;100.00
30919;BME280;76545;51.606;5.884;2024-02-14T01:47:20;101294.34;;;7.50;100.00
30919;BME280;76545;51.606;5.884;2024-02-14T01:49:47;101292.84;;;7.54;100.00
30919;BME280;76545;51.606;5.884;2024-02-14T01:52:13;101283.25;;;7.55;100.00
30919;BME280;76545;51.606;5.884;2024-02-14T01:54:40;101285.31;;;7.59;100.00
30919;BME280;76545;51.606;5.884;2024-02-14T01:57:08;101277.34;;;7.57;100.00
30919;BME280;76545;51.606;5.884;2024-02-14T01:59:34;101277.44;;;7.59;100.00
30919;BME280;76545;51.606;5.884;2024-02-14T02:02:04;101279.38;;;7.61;100.00
30919;BME280;76545;51.606;5.884;2024-02-14T02:04:33;101284.63;;;7.61;100.00
30919;BME280;76545;51.606;5.884;2024-02-14T02:07:00;101287.16;;;7.60;100.00
30919;BME280;76545;51.606;5.884;2024-02-14T02:09:26;101281.31;;;7.64;100.00
30919;BME280;76545;51.606;5.884;2024-02-14T02:11:52;101282.44;;;7.68;100.00
30919;BME280;76545;51.606;5.884;2024-02-14T02:14:22;101286.66;;;7.66;100.00
30919;BME280;76545;51.606;5.884;2024-02-14T02:16:48;101272.06;;;7.69;100.00
30919;BME280;76545;51.606;5.884;2024-02-14T02:19:15;101279.94;;;7.69;100.00
30919;BME280;76545;51.606;5.884;2024-02-14T02:21:41;101275.63;;;7.70;100.00
30919;BME280;76545;51.606;5.884;2024-02-14T02:24:08;101277.22;;;7.68;100.00
30919;BME280;76545;51.606;5.884;2024-02-14T02:26:34;101283.22;;;7.67;100.00
30919;BME280;76545;51.606;5.884;2024-02-14T02:29:00;101282.44;;;7.68;100.00
30919;BME280;76545;51.606;5.884;2024-02-14T02:31:26;101282.78;;;7.72;100.00
30919;BME280;76545;51.606;5.884;2024-02-14T02:33:53;101284.59;;;7.73;100.00
30919;BME280;76545;51.606;5.884;2024-02-14T02:36:18;101291.06;;;7.79;100.00
30919;BME280;76545;51.606;5.884;2024-02-14T02:38:44;101290.03;;;7.77;100.00
30919;BME280;76545;51.606;5.884;2024-02-14T02:41:10;101288.91;;;7.73;100.00
30919;BME280;76545;51.606;5.884;2024-02-14T02:43:37;101292.56;;;7.75;100.00
30919;BME280;76545;51.606;5.884;2024-02-14T02:46:03;101282.78;;;7.72;100.00
30919;BME280;76545;51.606;5.884;2024-02-14T02:48:29;101275.91;;;7.74;100.00
30919;BME280;76545;51.606;5.884;2024-02-14T02:50:57;101290.88;;;7.75;100.00
30919;BME280;76545;51.606;5.884;2024-02-14T02:53:24;101279.56;;;7.77;100.00
30919;BME280;76545;51.606;5.884;2024-02-14T02:55:50;101280.38;;;7.75;100.00
30919;BME280;76545;51.606;5.884;2024-02-14T02:58:17;101282.31;;;7.78;100.00
30919;BME280;76545;51.606;5.884;2024-02-14T03:00:43;101283.19;;;7.79;100.00
30919;BME280;76545;51.606;5.884;2024-02-14T03:03:09;101270.25;;;7.80;100.00
30919;BME280;76545;51.606;5.884;2024-02-14T03:05:36;101283.44;;;7.82;100.00
30919;BME280;76545;51.606;5.884;2024-02-14T03:08:02;101277.97;;;7.79;100.00
30919;BME280;76545;51.606;5.884;2024-02-14T03:10:28;101268.50;;;7.81;100.00
30919;BME280;76545;51.606;5.884;2024-02-14T03:12:55;101274.56;;;7.80;100.00
30919;BME280;76545;51.606;5.884;2024-02-14T03:15:21;101274.09;;;7.85;100.00
30919;BME280;76545;51.606;5.884;2024-02-14T03:17:48;101279.13;;;7.82;100.00
30919;BME280;76545;51.606;5.884;2024-02-14T03:20:14;101290.50;;;7.83;100.00
30919;BME280;76545;51.606;5.884;2024-02-14T03:22:43;101281.94;;;7.85;100.00
30919;BME280;76545;51.606;5.884;2024-02-14T03:25:20;101275.69;;;7.83;100.00
30919;BME280;76545;51.606;5.884;2024-02-14T03:27:46;101281.84;;;7.84;100.00
30919;BME280;76545;51.606;5.884;2024-02-14T03:30:19;101282.72;;;7.84;100.00
30919;BME280;76545;51.606;5.884;2024-02-14T03:32:46;101285.47;;;7.86;100.00
30919;BME280;76545;51.606;5.884;2024-02-14T03:35:12;101285.78;;;7.91;100.00
30919;BME280;76545;51.606;5.884;2024-02-14T03:37:40;101279.31;;;7.85;100.00
30919;BME280;76545;51.606;5.884;2024-02-14T03:40:08;101290.72;;;7.86;100.00
30919;BME280;76545;51.606;5.884;2024-02-14T03:42:34;101293.88;;;7.94;100.00
30919;BME280;76545;51.606;5.884;2024-02-14T03:45:00;101294.56;;;7.91;100.00
30919;BME280;76545;51.606;5.884;2024-02-14T03:47:32;101287.94;;;7.96;100.00
30919;BME280;76545;51.606;5.884;2024-02-14T03:49:59;101293.19;;;7.96;100.00
30919;BME280;76545;51.606;5.884;2024-02-14T03:52:25;101304.38;;;7.94;100.00
30919;BME280;76545;51.606;5.884;2024-02-14T03:54:51;101292.97;;;7.93;100.00
30919;BME280;76545;51.606;5.884;2024-02-14T03:57:17;101295.69;;;7.95;100.00
30919;BME280;76545;51.606;5.884;2024-02-14T03:59:44;101300.00;;;7.94;100.00
30919;BME280;76545;51.606;5.884;2024-02-14T04:02:10;101296.41;;;7.92;100.00
30919;BME280;76545;51.606;5.884;2024-02-14T04:04:37;101298.41;;;7.96;100.00
30919;BME280;76545;51.606;5.884;2024-02-14T04:07:05;101299.44;;;7.98;100.00
30919;BME280;76545;51.606;5.884;2024-02-14T04:09:33;101291.38;;;7.95;100.00
30919;BME280;76545;51.606;5.884;2024-02-14T04:11:59;101292.50;;;7.99;100.00
30919;BME280;76545;51.606;5.884;2024-02-14T04:14:25;101289.97;;;8.01;100.00
30919;BME280;76545;51.606;5.884;2024-02-14T04:16:51;101312.78;;;8.02;100.00
30919;BME280;76545;51.606;5.884;2024-02-14T04:19:17;101306.94;;;8.06;100.00
30919;BME280;76545;51.606;5.884;2024-02-14T04:21:43;101307.53;;;8.02;100.00
30919;BME280;76545;51.606;5.884;2024-02-14T04:24:10;101312.78;;;8.02;100.00
30919;BME280;76545;51.606;5.884;2024-02-14T04:26:36;101300.44;;;8.01;100.00
30919;BME280;76545;51.606;5.884;2024-02-14T04:29:02;101312.69;;;8.00;100.00
30919;BME280;76545;51.606;5.884;2024-02-14T04:31:28;101313.81;;;8.04;100.00
30919;BME280;76545;51.606;5.884;2024-02-14T04:33:55;101315.59;;;8.05;100.00
30919;BME280;76545;51.606;5.884;2024-02-14T04:36:21;101321.75;;;8.05;100.00
30919;BME280;76545;51.606;5.884;2024-02-14T04:38:50;101317.66;;;8.09;100.00
30919;BME280;76545;51.606;5.884;2024-02-14T04:41:17;101311.19;;;8.04;100.00
30919;BME280;76545;51.606;5.884;2024-02-14T04:43:43;101321.19;;;8.09;100.00
30919;BME280;76545;51.606;5.884;2024-02-14T04:46:09;101331.88;;;8.13;100.00
30919;BME280;76545;51.606;5.884;2024-02-14T04:48:35;101329.34;;;8.14;100.00
30919;BME280;76545;51.606;5.884;2024-02-14T04:51:03;101328.13;;;8.09;100.00
30919;BME280;76545;51.606;5.884;2024-02-14T04:53:31;101332.69;;;8.12;100.00
30919;BME280;76545;51.606;5.884;2024-02-14T04:55:57;101345.31;;;8.17;100.00
30919;BME280;76545;51.606;5.884;2024-02-14T04:58:23;101335.31;;;8.12;100.00
30919;BME280;76545;51.606;5.884;2024-02-14T05:00:49;101346.09;;;8.16;100.00
30919;BME280;76545;51.606;5.884;2024-02-14T05:03:15;101341.78;;;8.17;100.00
30919;BME280;76545;51.606;5.884;2024-02-14T05:05:42;101345.31;;;8.17;100.00
30919;BME280;76545;51.606;5.884;2024-02-14T05:08:08;101347.84;;;8.16;100.00
30919;BME280;76545;51.606;5.884;2024-02-14T05:10:34;101343.63;;;8.18;100.00
30919;BME280;76545;51.606;5.884;2024-02-14T05:13:00;101341.69;;;8.15;100.00
30919;BME280;76545;51.606;5.884;2024-02-14T05:15:26;101345.41;;;8.19;100.00
30919;BME280;76545;51.606;5.884;2024-02-14T05:17:52;101347.72;;;8.14;100.00
30919;BME280;76545;51.606;5.884;2024-02-14T05:20:18;101347.25;;;8.20;100.00
30919;BME280;76545;51.606;5.884;2024-02-14T05:22:44;101350.09;;;8.23;100.00
30919;BME280;76545;51.606;5.884;2024-02-14T05:25:11;101340.06;;;8.17;100.00
30919;BME280;76545;51.606;5.884;2024-02-14T05:27:37;101350.78;;;8.20;100.00
30919;BME280;76545;51.606;5.884;2024-02-14T05:30:04;101349.88;;;8.20;100.00
30919;BME280;76545;51.606;5.884;2024-02-14T05:32:34;101360.56;;;8.23;100.00
30919;BME280;76545;51.606;5.884;2024-02-14T05:35:00;101358.44;;;8.17;100.00
30919;BME280;76545;51.606;5.884;2024-02-14T05:37:26;101357.03;;;8.22;100.00
30919;BME280;76545;51.606;5.884;2024-02-14T05:39:55;101354.78;;;8.15;100.00
30919;BME280;76545;51.606;5.884;2024-02-14T05:42:21;101357.63;;;8.18;100.00
30919;BME280;76545;51.606;5.884;2024-02-14T05:44:48;101368.34;;;8.21;100.00
30919;BME280;76545;51.606;5.884;2024-02-14T05:47:14;101366.50;;;8.20;100.00
30919;BME280;76545;51.606;5.884;2024-02-14T05:49:40;101373.78;;;8.25;100.00
30919;BME280;76545;51.606;5.884;2024-02-14T05:52:07;101364.91;;;8.22;100.00
30919;BME280;76545;51.606;5.884;2024-02-14T05:54:34;101368.09;;;8.18;100.00
30919;BME280;76545;51.606;5.884;2024-02-14T05:57:00;101362.50;;;8.26;100.00
30919;BME280;76545;51.606;5.884;2024-02-14T05:59:30;101363.28;;;8.25;100.00
30919;BME280;76545;51.606;5.884;2024-02-14T06:01:56;101368.53;;;8.25;100.00
30919;BME280;76545;51.606;5.884;2024-02-14T06:04:22;101364.91;;;8.22;100.00
30919;BME280;76545;51.606;5.884;2024-02-14T06:06:48;101365.13;;;8.26;100.00
30919;BME280;76545;51.606;5.884;2024-02-14T06:09:14;101370.16;;;8.22;100.00
30919;BME280;76545;51.606;5.884;2024-02-14T06:11:40;101374.72;;;8.25;100.00
30919;BME280;76545;51.606;5.884;2024-02-14T06:14:07;101375.28;;;8.21;100.00
30919;BME280;76545;51.606;5.884;2024-02-14T06:16:33;101375.38;;;8.22;100.00
30919;BME280;76545;51.606;5.884;2024-02-14T06:18:59;101376.31;;;8.23;100.00
30919;BME280;76545;51.606;5.884;2024-02-14T06:21:26;101372.19;;;8.27;100.00
30919;BME280;76545;51.606;5.884;2024-02-14T06:23:52;101379.63;;;8.20;100.00
30919;BME280;76545;51.606;5.884;2024-02-14T06:26:18;101384.38;;;8.26;100.00
30919;BME280;76545;51.606;5.884;2024-02-14T06:28:45;101387.00;;;8.26;100.00
30919;BME280;76545;51.606;5.884;2024-02-14T06:31:11;101394.09;;;8.27;100.00
30919;BME280;76545;51.606;5.884;2024-02-14T06:33:37;101394.19;;;8.29;100.00
30919;BME280;76545;51.606;5.884;2024-02-14T06:36:03;101402.16;;;8.30;100.00
30919;BME280;76545;51.606;5.884;2024-02-14T06:38:31;101407.50;;;8.32;100.00
30919;BME280;76545;51.606;5.884;2024-02-14T06:40:57;101411.88;;;8.31;100.00
30919;BME280;76545;51.606;5.884;2024-02-14T06:43:23;101409.13;;;8.30;100.00
30919;BME280;76545;51.606;5.884;2024-02-14T06:45:49;101412.53;;;8.29;100.00
30919;BME280;76545;51.606;5.884;2024-02-14T06:48:15;101419.84;;;8.33;100.00
30919;BME280;76545;51.606;5.884;2024-02-14T06:50:41;101410.03;;;8.30;100.00
30919;BME280;76545;51.606;5.884;2024-02-14T06:53:08;101410.03;;;8.30;100.00
30919;BME280;76545;51.606;5.884;2024-02-14T06:55:34;101408.44;;;8.32;100.00
30919;BME280;76545;51.606;5.884;2024-02-14T06:58:00;101410.94;;;8.31;100.00
30919;BME280;76545;51.606;5.884;2024-02-14T07:00:26;101404.69;;;8.29;100.00
30919;BME280;76545;51.606;5.884;2024-02-14T07:02:54;101409.53;;;8.36;100.00
30919;BME280;76545;51.606;5.884;2024-02-14T07:05:20;101425.72;;;8.42;100.00
30919;BME280;76545;51.606;5.884;2024-02-14T07:07:46;101428.72;;;8.35;100.00
30919;BME280;76545;51.606;5.884;2024-02-14T07:10:12;101422.66;;;8.36;100.00
30919;BME280;76545;51.606;5.884;2024-02-14T07:12:38;101422.66;;;8.36;100.00
30919;BME280;76545;51.606;5.884;2024-02-14T07:15:05;101425.28;;;8.36;100.00
30919;BME280;76545;51.606;5.884;2024-02-14T07:17:31;101430.78;;;8.39;100.00
30919;BME280;76545;51.606;5.884;2024-02-14T07:19:57;101433.59;;;8.42;100.00
30919;BME280;76545;51.606;5.884;2024-02-14T07:22:23;101436.94;;;8.40;100.00
30919;BME280;76545;51.606;5.884;2024-02-14T07:24:49;101434.63;;;8.44;100.00
30919;BME280;76545;51.606;5.884;2024-02-14T07:27:16;101428.34;;;8.42;100.00
30919;BME280;76545;51.606;5.884;2024-02-14T07:29:44;101436.47;;;8.45;100.00
30919;BME280;76545;51.606;5.884;2024-02-14T07:32:10;101432.34;;;8.49;100.00
30919;BME280;76545;51.606;5.884;2024-02-14T07:34:40;101440.09;;;8.48;100.00
30919;BME280;76545;51.606;5.884;2024-02-14T07:37:06;101431.22;;;8.45;100.00
30919;BME280;76545;51.606;5.884;2024-02-14T07:39:32;101432.81;;;8.43;100.00
30919;BME280;76545;51.606;5.884;2024-02-14T07:42:01;101439.50;;;8.52;100.00
30919;BME280;76545;51.606;5.884;2024-02-14T07:44:27;101435.75;;;8.48;100.00
30919;BME280;76545;51.606;5.884;2024-02-14T07:46:53;101443.75;;;8.50;100.00
30919;BME280;76545;51.606;5.884;2024-02-14T07:49:19;101425.59;;;8.53;100.00
30919;BME280;76545;51.606;5.884;2024-02-14T08:07:57;101444.72;;;8.64;100.00
30919;BME280;76545;51.606;5.884;2024-02-14T08:10:23;101445.75;;;8.66;100.00
30919;BME280;76545;51.606;5.884;2024-02-14T08:12:49;101442.81;;;8.61;100.00
30919;BME280;76545;51.606;5.884;2024-02-14T08:15:15;101453.75;;;8.67;100.00
30919;BME280;76545;51.606;5.884;2024-02-14T08:17:41;101461.97;;;8.60;100.00
30919;BME280;76545;51.606;5.884;2024-02-14T08:20:08;101453.53;;;8.64;100.00
30919;BME280;76545;51.606;5.884;2024-02-14T08:22:35;101454.75;;;8.69;100.00
30919;BME280;76545;51.606;5.884;2024-02-14T08:25:01;101461.25;;;8.75;100.00
30919;BME280;76545;51.606;5.884;2024-02-14T08:27:28;101456.00;;;8.75;100.00
30919;BME280;76545;51.606;5.884;2024-02-14T08:29:54;101458.63;;;8.75;100.00
30919;BME280;76545;51.606;5.884;2024-02-14T08:32:20;101464.06;;;8.78;100.00
30919;BME280;76545;51.606;5.884;2024-02-14T08:34:46;101458.81;;;8.78;100.00
30919;BME280;76545;51.606;5.884;2024-02-14T08:37:13;101459.63;;;8.77;100.00
30919;BME280;76545;51.606;5.884;2024-02-14T08:39:39;101455.50;;;8.80;100.00
30919;BME280;76545;51.606;5.884;2024-02-14T08:42:06;101461.69;;;8.81;100.00
30919;BME280;76545;51.606;5.884;2024-02-14T08:44:35;101454.50;;;8.78;100.00
30919;BME280;76545;51.606;5.884;2024-02-14T08:47:01;101457.44;;;8.83;100.00
30919;BME280;76545;51.606;5.884;2024-02-14T08:49:27;101456.63;;;8.84;100.00
30919;BME280;76545;51.606;5.884;2024-02-14T08:51:53;101455.84;;;8.85;100.00
30919;BME280;76545;51.606;5.884;2024-02-14T08:54:20;101442.28;;;8.79;100.00
30919;BME280;76545;51.606;5.884;2024-02-14T08:56:47;101465.31;;;8.83;100.00
30919;BME280;76545;51.606;5.884;2024-02-14T08:59:14;101465.44;;;8.85;100.00
30919;BME280;76545;51.606;5.884;2024-02-14T09:01:40;101462.31;;;8.90;100.00
30919;BME280;76545;51.606;5.884;2024-02-14T09:04:06;101470.88;;;8.88;100.00
30919;BME280;76545;51.606;5.884;2024-02-14T09:06:32;101474.16;;;8.97;100.00
30919;BME280;76545;51.606;5.884;2024-02-14T09:08:58;101471.22;;;8.92;100.00
30919;BME280;76545;51.606;5.884;2024-02-14T09:11:24;101474.25;;;8.99;100.00
30919;BME280;76545;51.606;5.884;2024-02-14T09:13:51;101470.91;;;9.01;100.00
30919;BME280;76545;51.606;5.884;2024-02-14T09:16:21;101471.63;;;8.99;100.00
30919;BME280;76545;51.606;5.884;2024-02-14T09:18:49;101473.88;;;9.06;100.00
30919;BME280;76545;51.606;5.884;2024-02-14T09:21:15;101473.47;;;9.13;100.00
30919;BME280;76545;51.606;5.884;2024-02-14T09:23:48;101475.81;;;9.09;100.00
30919;BME280;76545;51.606;5.884;2024-02-14T09:26:15;101472.28;;;9.08;100.00
30919;BME280;76545;51.606;5.884;2024-02-14T09:28:43;101476.84;;;9.11;100.00
30919;BME280;76545;51.606;5.884;2024-02-14T09:31:10;101490.25;;;9.15;100.00
30919;BME280;76545;51.606;5.884;2024-02-14T09:33:38;101493.81;;;9.16;100.00
30919;BME280;76545;51.606;5.884;2024-02-14T09:36:04;101489.09;;;9.24;100.00
30919;BME280;76545;51.606;5.884;2024-02-14T09:38:30;101504.06;;;9.25;100.00
30919;BME280;76545;51.606;5.884;2024-02-14T09:41:27;101497.97;;;9.26;100.00
30919;BME280;76545;51.606;5.884;2024-02-14T09:43:55;101509.69;;;9.31;100.00
30919;BME280;76545;51.606;5.884;2024-02-14T09:46:24;101503.56;;;9.31;100.00
30919;BME280;76545;51.606;5.884;2024-02-14T09:48:53;101498.59;;;9.35;100.00
30919;BME280;76545;51.606;5.884;2024-02-14T09:51:21;101499.09;;;9.30;100.00
30919;BME280;76545;51.606;5.884;2024-02-14T09:53:47;101490.03;;;9.38;100.00
30919;BME280;76545;51.606;5.884;2024-02-14T09:56:13;101502.03;;;9.34;100.00
30919;BME280;76545;51.606;5.884;2024-02-14T09:58:43;101503.78;;;9.47;100.00
30919;BME280;76545;51.606;5.884;2024-02-14T10:01:09;101509.53;;;9.42;100.00
30919;BME280;76545;51.606;5.884;2024-02-14T10:06:11;101518.53;;;9.45;100.00
30919;BME280;76545;51.606;5.884;2024-02-14T10:11:31;101516.41;;;9.53;100.00
30919;BME280;76545;51.606;5.884;2024-02-14T10:13:57;101520.28;;;9.58;100.00
30919;BME280;76545;51.606;5.884;2024-02-14T10:16:28;101522.69;;;9.55;100.00
30919;BME280;76545;51.606;5.884;2024-02-14T10:18:54;101511.41;;;9.56;100.00
30919;BME280;76545;51.606;5.884;2024-02-14T10:24:00;101508.38;;;9.77;100.00
30919;BME280;76545;51.606;5.884;2024-02-14T10:26:26;101507.59;;;9.92;100.00
30919;BME280;76545;51.606;5.884;2024-02-14T10:28:53;101517.38;;;9.94;100.00
30919;BME280;76545;51.606;5.884;2024-02-14T10:31:24;101507.59;;;9.92;100.00
30919;BME280;76545;51.606;5.884;2024-02-14T10:33:55;101521.53;;;10.04;100.00
30919;BME280;76545;51.606;5.884;2024-02-14T10:36:22;101513.03;;;9.95;100.00
30919;BME280;76545;51.606;5.884;2024-02-14T10:38:50;101532.16;;;10.06;100.00
30919;BME280;76545;51.606;5.884;2024-02-14T10:41:17;101523.53;;;10.08;100.00
30919;BME280;76545;51.606;5.884;2024-02-14T10:43:43;101528.72;;;10.07;100.00
30919;BME280;76545;51.606;5.884;2024-02-14T10:46:24;101538.03;;;10.15;100.00
30919;BME280;76545;51.606;5.884;2024-02-14T10:49:00;101539.44;;;10.10;100.00
30919;BME280;76545;51.606;5.884;2024-02-14T10:51:31;101551.97;;;10.01;100.00
30919;BME280;76545;51.606;5.884;2024-02-14T10:54:01;101543.28;;;10.02;100.00
30919;BME280;76545;51.606;5.884;2024-02-14T10:56:29;101540.66;;;10.02;100.00
30919;BME280;76545;51.606;5.884;2024-02-14T10:59:01;101532.16;;;10.06;100.00
30919;BME280;76545;51.606;5.884;2024-02-14T11:01:29;101541.78;;;10.05;100.00
30919;BME280;76545;51.606;5.884;2024-02-14T11:03:59;101537.22;;;10.03;100.00
30919;BME280;76545;51.606;5.884;2024-02-14T11:06:26;101535.50;;;9.90;100.00
30919;BME280;76545;51.606;5.884;2024-02-14T11:09:02;101529.81;;;10.10;100.00
30919;BME280;76545;51.606;5.884;2024-02-14T11:11:38;101530.44;;;10.20;100.00
30919;BME280;76545;51.606;5.884;2024-02-14T11:14:06;101530.22;;;10.17;100.00
30919;BME280;76545;51.606;5.884;2024-02-14T11:16:32;101541.66;;;10.17;100.00
30919;BME280;76545;51.606;5.884;2024-02-14T11:19:09;101531.34;;;10.20;100.00
30919;BME280;76545;51.606;5.884;2024-02-14T11:21:43;101525.56;;;10.26;100.00
30919;BME280;76545;51.606;5.884;2024-02-14T11:24:13;101523.25;;;10.31;100.00
30919;BME280;76545;51.606;5.884;2024-02-14T11:26:50;101522.94;;;10.26;100.00
30919;BME280;76545;51.606;5.884;2024-02-14T11:29:20;101518.91;;;10.31;100.00
30919;BME280;76545;51.606;5.884;2024-02-14T11:31:47;101512.63;;;10.29;100.00
30919;BME280;76545;51.606;5.884;2024-02-14T11:34:16;101518.38;;;10.37;100.00
30919;BME280;76545;51.606;5.884;2024-02-14T11:36:43;101516.84;;;10.41;100.00
30919;BME280;76545;51.606;5.884;2024-02-14T11:39:13;101501.97;;;10.55;100.00
30919;BME280;76545;51.606;5.884;2024-02-14T11:41:40;101505.22;;;10.51;100.00
30919;BME280;76545;51.606;5.884;2024-02-14T11:44:08;101505.88;;;10.48;100.00
30919;BME280;76545;51.606;5.884;2024-02-14T11:46:35;101505.72;;;10.45;100.00
30919;BME280;76545;51.606;5.884;2024-02-14T11:49:03;101493.16;;;10.41;100.00
30919;BME280;76545;51.606;5.884;2024-02-14T11:51:31;101507.94;;;10.52;100.00
30919;BME280;76545;51.606;5.884;2024-02-14T11:53:58;101497.91;;;10.47;100.00
30919;BME280;76545;51.606;5.884;2024-02-14T11:56:32;101508.53;;;10.48;100.00
30919;BME280;76545;51.606;5.884;2024-02-14T11:59:01;101509.97;;;10.56;100.00
30919;BME280;76545;51.606;5.884;2024-02-14T12:01:31;101502.50;;;10.49;100.00
30919;BME280;76545;51.606;5.884;2024-02-14T12:04:01;101486.97;;;10.40;100.00
30919;BME280;76545;51.606;5.884;2024-02-14T12:06:30;101496.19;;;10.47;100.00
30919;BME280;76545;51.606;5.884;2024-02-14T12:09:04;101488.81;;;10.41;100.00
30919;BME280;76545;51.606;5.884;2024-02-14T12:11:36;101489.72;;;10.42;100.00
30919;BME280;76545;51.606;5.884;2024-02-14T12:14:08;101492.47;;;10.43;100.00
30919;BME280;76545;51.606;5.884;2024-02-14T12:16:38;101497.72;;;10.43;100.00
30919;BME280;76545;51.606;5.884;2024-02-14T12:19:13;101492.47;;;10.43;100.00
30919;BME280;76545;51.606;5.884;2024-02-14T12:21:42;101487.72;;;10.38;100.00
30919;BME280;76545;51.606;5.884;2024-02-14T12:24:10;101496.41;;;10.37;100.00
30919;BME280;76545;51.606;5.884;2024-02-14T12:26:38;101499.97;;;10.37;100.00
30919;BME280;76545;51.606;5.884;2024-02-14T12:29:05;101496.00;;;10.30;100.00
30919;BME280;76545;51.606;5.884;2024-02-14T12:31:32;101497.53;;;10.27;100.00
30919;BME280;76545;51.606;5.884;2024-02-14T12:33:59;101490.56;;;10.27;100.00
30919;BME280;76545;51.606;5.884;2024-02-14T12:36:31;101492.97;;;10.24;100.00
30919;BME280;76545;51.606;5.884;2024-02-14T12:38:59;101490.34;;;10.24;100.00
30919;BME280;76545;51.606;5.884;2024-02-14T12:41:28;101501.50;;;10.20;100.00
30919;BME280;76545;51.606;5.884;2024-02-14T12:43:58;101492.09;;;10.24;100.00
30919;BME280;76545;51.606;5.884;2024-02-14T12:46:25;101504.50;;;10.26;100.00
30919;BME280;76545;51.606;5.884;2024-02-14T12:48:51;101502.72;;;10.25;100.00
30919;BME280;76545;51.606;5.884;2024-02-14T12:51:17;101495.59;;;10.24;100.00
30919;BME280;76545;51.606;5.884;2024-02-14T12:53:43;101486.94;;;10.25;100.00
30919;BME280;76545;51.606;5.884;2024-02-14T12:56:09;101484.72;;;10.18;100.00
30919;BME280;76545;51.606;5.884;2024-02-14T12:58:35;101488.22;;;10.18;100.00
30919;BME280;76545;51.606;5.884;2024-02-14T13:01:02;101483.88;;;10.19;100.00
30919;BME280;76545;51.606;5.884;2024-02-14T13:03:32;101492.97;;;10.24;100.00
30919;BME280;76545;51.606;5.884;2024-02-14T13:05:59;101484.06;;;10.22;100.00
30919;BME280;76545;51.606;5.884;2024-02-14T13:08:26;101479.47;;;10.18;100.00
30919;BME280;76545;51.606;5.884;2024-02-14T13:10:52;101474.56;;;10.24;100.00